createdAt,value
2022-09-04T00:02:06.965Z,100925.09
2022-09-04T00:05:04.873Z,100934.88
2022-09-04T00:07:57.978Z,100932.88
2022-09-04T00:10:40.781Z,100928.78
2022-09-04T00:13:39.490Z,100925.53
2022-09-04T00:16:23.792Z,100930.03
2022-09-04T00:19:08.646Z,100933.25
2022-09-04T00:21:35.951Z,100932.06
2022-09-04T00:24:08.055Z,100939.75
2022-09-04T00:26:56.967Z,100940.19
2022-09-04T00:29:36.101Z,100943.03
2022-09-04T00:32:34.785Z,100938.56
2022-09-04T00:35:08.178Z,100932.09
2022-09-04T00:37:55.670Z,100926.41
2022-09-04T00:40:42.069Z,100936.94
2022-09-04T00:43:33.701Z,100936.91
2022-09-04T00:46:23.083Z,100936.09
2022-09-04T00:49:11.960Z,100938.94
2022-09-04T00:52:13.162Z,100947.47
2022-09-04T00:54:57.326Z,100940.97
2022-09-04T00:57:55.186Z,100932.91
2022-09-04T01:00:23.923Z,100938.56
2022-09-04T01:03:11.223Z,100935.72
2022-09-04T01:06:12.766Z,100952.78
2022-09-04T01:09:02.991Z,100937.34
2022-09-04T01:11:51.654Z,100940.63
2022-09-04T01:14:39.230Z,100943.47
2022-09-04T01:17:17.966Z,100949.13
2022-09-04T01:20:13.128Z,100950.34
2022-09-04T01:23:07.661Z,100950.78
2022-09-04T01:26:06.054Z,100959.66
2022-09-04T01:28:54.184Z,100961.34
2022-09-04T01:31:39.032Z,100961.75
2022-09-04T01:34:22.773Z,100960.94
2022-09-04T01:36:56.248Z,100973.09
2022-09-04T01:39:26.542Z,100972.69
2022-09-04T01:42:05.367Z,100973.09
2022-09-04T01:44:34.103Z,100977.19
2022-09-04T01:47:09.914Z,100969.47
2022-09-04T01:49:50.590Z,100979.22
2022-09-04T01:52:23.907Z,100978.38
2022-09-04T01:54:51.181Z,100988.13
2022-09-04T01:57:46.848Z,100995.06
2022-09-04T02:00:17.500Z,100995.44
2022-09-04T02:02:55.275Z,100989.78
2022-09-04T02:05:40.854Z,100993.03
2022-09-04T02:08:24.091Z,101005.63
2022-09-04T02:11:04.632Z,100997.09
2022-09-04T02:13:40.347Z,101000.34
2022-09-04T02:16:30.022Z,101001.13
2022-09-04T02:19:23.506Z,101006.44
2022-09-04T02:22:21.040Z,100997.50
2022-09-04T02:25:10.089Z,101001.16
2022-09-04T02:28:04.644Z,101002.81
2022-09-04T02:30:42.798Z,101003.59
2022-09-04T02:33:35.519Z,101002.41
2022-09-04T02:36:08.313Z,101000.34
2022-09-04T02:38:41.003Z,100996.72
2022-09-04T02:41:24.806Z,100993.47
2022-09-04T02:43:52.302Z,101002.41
2022-09-04T02:46:53.499Z,101007.66
2022-09-04T02:49:58.211Z,101005.22
2022-09-04T02:52:35.263Z,101001.59
2022-09-04T02:55:48.489Z,101011.31
2022-09-04T02:58:50.890Z,101010.13
2022-09-04T03:02:00.539Z,101003.63
2022-09-04T03:04:56.751Z,100998.34
2022-09-04T03:07:37.436Z,100991.06
2022-09-04T03:10:36.301Z,100991.44
2022-09-04T03:13:21.211Z,100997.97
2022-09-04T03:15:54.674Z,100998.78
2022-09-04T03:18:39.655Z,100993.91
2022-09-04T03:21:18.879Z,100997.56
2022-09-04T03:24:01.364Z,100982.94
2022-09-04T03:26:36.185Z,100988.63
2022-09-04T03:29:22.355Z,100990.28
2022-09-04T03:32:28.247Z,100989.88
2022-09-04T03:35:18.514Z,100991.91
2022-09-04T03:38:31.419Z,100991.50
2022-09-04T03:41:11.467Z,100981.34
2022-09-04T03:43:58.556Z,100988.25
2022-09-04T03:46:52.420Z,100984.19
2022-09-04T03:49:46.836Z,100981.34
2022-09-04T03:52:43.111Z,100989.44
2022-09-04T03:55:55.211Z,100990.25
2022-09-04T03:58:53.749Z,100981.75
2022-09-04T04:01:30.929Z,100987.41
2022-09-04T04:04:14.607Z,100987.84
2022-09-04T04:07:07.741Z,100985.00
2022-09-04T04:09:46.556Z,100989.47
2022-09-04T04:12:27.405Z,100989.88
2022-09-04T04:15:45.773Z,100989.09
2022-09-04T04:18:54.912Z,100997.59
2022-09-04T04:21:57.771Z,101004.47
2022-09-04T04:25:06.744Z,101005.72
2022-09-04T04:28:09.562Z,101007.75
2022-09-04T04:31:11.697Z,101006.94
2022-09-04T04:34:09.317Z,101014.25
2022-09-04T04:37:09.093Z,101021.16
2022-09-04T04:40:09.014Z,101024.00
2022-09-04T04:43:06.914Z,101025.59
2022-09-04T04:46:29.321Z,101033.31
2022-09-04T04:49:09.308Z,101029.25
2022-09-04T04:51:42.407Z,101034.53
2022-09-04T04:54:47.441Z,101031.72
2022-09-04T04:57:36.771Z,101043.47
2022-09-04T05:00:18.724Z,101047.53
2022-09-04T05:02:54.262Z,101044.28
2022-09-04T05:06:04.071Z,101056.44
2022-09-04T05:08:52.953Z,101062.94
2022-09-04T05:11:35.855Z,101067.78
2022-09-04T05:14:25.273Z,101079.59
2022-09-04T05:17:23.805Z,101081.63
2022-09-04T05:20:12.783Z,101079.97
2022-09-04T05:22:52.496Z,101092.97
2022-09-04T05:25:34.556Z,101090.94
2022-09-04T05:28:42.827Z,101092.97
2022-09-04T05:31:39.223Z,101089.34
2022-09-04T05:34:25.828Z,101097.03
2022-09-04T05:37:15.023Z,101100.69
2022-09-04T05:40:00.845Z,101111.22
2022-09-04T05:42:55.985Z,101110.00
2022-09-04T05:45:25.443Z,101107.16
2022-09-04T05:48:22.791Z,101110.41
2022-09-04T05:51:04.194Z,101112.41
2022-09-04T05:53:34.304Z,101116.09
2022-09-04T05:56:29.395Z,101127.84
2022-09-04T05:58:56.678Z,101127.84
2022-09-04T06:02:06.573Z,101132.31
2022-09-04T06:04:46.030Z,101132.72
2022-09-04T06:07:50.437Z,101135.56
2022-09-04T06:10:24.987Z,101142.47
2022-09-04T06:13:14.004Z,101144.50
2022-09-04T06:16:02.431Z,101145.69
2022-09-04T06:18:53.200Z,101146.94
2022-09-04T06:21:20.404Z,101141.25
2022-09-04T06:24:26.122Z,101135.97
2022-09-04T06:27:15.164Z,101139.22
2022-09-04T06:30:07.320Z,101142.47
2022-09-04T06:33:09.582Z,101139.63
2022-09-04T06:36:09.505Z,101136.81
2022-09-04T06:38:46.168Z,101146.94
2022-09-04T06:41:50.469Z,101137.59
2022-09-04T06:45:10.636Z,101130.72
2022-09-04T06:48:18.722Z,101143.28
2022-09-04T06:50:53.818Z,101147.31
2022-09-04T06:53:43.349Z,101148.97
2022-09-04T06:56:19.284Z,101150.56
2022-09-04T06:59:04.835Z,101141.25
2022-09-04T07:01:47.015Z,101138.81
2022-09-04T07:04:28.037Z,101151.38
2022-09-04T07:07:17.062Z,101158.28
2022-09-04T07:10:01.055Z,101155.84
2022-09-04T07:12:49.904Z,101155.84
2022-09-04T07:15:46.325Z,101158.25
2022-09-04T07:18:44.152Z,101151.78
2022-09-04T07:21:42.384Z,101165.56
2022-09-04T07:24:29.587Z,101167.59
2022-09-04T07:27:15.910Z,101157.06
2022-09-04T07:30:08.682Z,101175.28
2022-09-04T07:32:44.626Z,101167.97
2022-09-04T07:35:30.483Z,101173.28
2022-09-04T07:38:21.143Z,101170.81
2022-09-04T07:40:58.913Z,101176.91
2022-09-04T07:43:39.479Z,101176.09
2022-09-04T07:46:17.977Z,101180.97
2022-09-04T07:49:21.165Z,101182.56
2022-09-04T07:52:07.831Z,101179.31
2022-09-04T07:54:58.667Z,101191.50
2022-09-04T07:57:43.118Z,101195.16
2022-09-04T08:00:18.559Z,101195.16
2022-09-04T08:03:19.617Z,101201.63
2022-09-04T08:06:06.395Z,101194.72
2022-09-04T08:08:53.811Z,101198.38
2022-09-04T08:11:48.629Z,101204.91
2022-09-04T08:15:10.288Z,101217.06
2022-09-04T08:18:05.081Z,101223.94
2022-09-04T08:20:56.292Z,101222.72
2022-09-04T08:23:55.958Z,101223.53
2022-09-04T08:26:43.963Z,101227.59
2022-09-04T08:29:22.521Z,101230.81
2022-09-04T08:32:14.463Z,101227.97
2022-09-04T08:34:52.975Z,101232.84
2022-09-04T08:37:46.432Z,101232.03
2022-09-04T08:40:42.886Z,101234.47
2022-09-04T08:43:45.916Z,101231.63
2022-09-04T08:46:34.460Z,101235.72
2022-09-04T08:49:27.294Z,101232.88
2022-09-04T08:52:21.495Z,101228.38
2022-09-04T08:54:55.156Z,101231.63
2022-09-04T08:57:40.951Z,101232.03
2022-09-04T09:00:17.355Z,101223.88
2022-09-04T09:03:13.636Z,101232.41
2022-09-04T09:05:51.091Z,101227.53
2022-09-04T09:08:56.345Z,101229.56
2022-09-04T09:12:01.796Z,101229.16
2022-09-04T09:14:56.333Z,101228.75
2022-09-04T09:17:48.566Z,101227.09
2022-09-04T09:20:25.121Z,101238.06
2022-09-04T09:23:23.003Z,101242.44
2022-09-04T09:25:56.389Z,101235.53
2022-09-04T09:28:29.584Z,101235.50
2022-09-04T09:31:16.974Z,101233.06
2022-09-04T09:34:11.624Z,101235.53
2022-09-04T09:37:11.010Z,101227.00
2022-09-04T09:39:56.487Z,101226.19
2022-09-04T09:43:05.333Z,101229.03
2022-09-04T09:45:54.669Z,101229.81
2022-09-04T09:48:44.083Z,101234.69
2022-09-04T09:51:28.687Z,101228.59
2022-09-04T09:54:21.028Z,101223.72
2022-09-04T09:57:33.535Z,101229.00
2022-09-04T10:00:23.916Z,101231.44
2022-09-04T10:03:10.560Z,101226.16
2022-09-04T10:05:59.894Z,101230.63
2022-09-04T10:09:04.096Z,101225.38
2022-09-04T10:12:01.445Z,101233.91
2022-09-04T10:14:44.094Z,101230.66
2022-09-04T10:17:37.844Z,101223.38
2022-09-04T10:20:55.481Z,101221.72
2022-09-04T10:23:50.746Z,101214.38
2022-09-04T10:26:39.315Z,101213.56
2022-09-04T10:29:26.645Z,101214.78
2022-09-04T10:32:31.871Z,101213.16
2022-09-04T10:35:22.347Z,101213.16
2022-09-04T10:38:07.970Z,101212.31
2022-09-04T10:40:54.090Z,101216.00
2022-09-04T10:43:41.880Z,101214.34
2022-09-04T10:46:23.142Z,101206.63
2022-09-04T10:49:18.875Z,101211.91
2022-09-04T10:52:05.571Z,101216.34
2022-09-04T10:54:55.603Z,101209.03
2022-09-04T10:57:45.615Z,101204.13
2022-09-04T11:00:18.074Z,101198.84
2022-09-04T11:03:07.250Z,101199.25
2022-09-04T11:05:49.419Z,101204.94
2022-09-04T11:08:44.861Z,101205.34
2022-09-04T11:11:52.725Z,101197.63
2022-09-04T11:14:57.450Z,101196.00
2022-09-04T11:17:46.957Z,101189.06
2022-09-04T11:20:51.882Z,101189.06
2022-09-04T11:23:56.877Z,101187.00
2022-09-04T11:26:46.207Z,101188.25
2022-09-04T11:29:41.370Z,101178.09
2022-09-04T11:32:32.140Z,101190.31
2022-09-04T11:35:38.101Z,101187.47
2022-09-04T11:38:24.598Z,101181.38
2022-09-04T11:41:16.740Z,101185.03
2022-09-04T11:44:08.702Z,101176.50
2022-09-04T11:47:12.267Z,101172.44
2022-09-04T11:49:51.099Z,101176.09
2022-09-04T11:52:44.357Z,101176.91
2022-09-04T11:55:17.728Z,101176.09
2022-09-04T11:57:51.056Z,101174.03
2022-09-04T12:00:19.847Z,101175.63
2022-09-04T12:03:25.920Z,101172.00
2022-09-04T12:06:16.814Z,101175.25
2022-09-04T12:09:12.486Z,101176.50
2022-09-04T12:12:08.317Z,101171.63
2022-09-04T12:15:07.602Z,101180.94
2022-09-04T12:17:57.224Z,101170.81
2022-09-04T12:21:10.858Z,101170.00
2022-09-04T12:24:05.993Z,101163.88
2022-09-04T12:27:11.289Z,101170.41
2022-09-04T12:30:03.437Z,101166.31
2022-09-04T12:32:55.083Z,101162.69
2022-09-04T12:35:50.557Z,101166.34
2022-09-04T12:38:51.928Z,101161.09
2022-09-04T12:41:32.991Z,101157.41
2022-09-04T12:44:33.326Z,101148.47
2022-09-04T12:47:15.935Z,101152.56
2022-09-04T12:50:08.591Z,101149.72
2022-09-04T12:53:21.090Z,101152.56
2022-09-04T12:56:15.754Z,101152.97
2022-09-04T12:58:52.378Z,101153.38
2022-09-04T13:01:56.837Z,101147.69
2022-09-04T13:04:38.906Z,101152.59
2022-09-04T13:07:27.593Z,101151.31
2022-09-04T13:10:05.030Z,101146.88
2022-09-04T13:12:59.617Z,101154.16
2022-09-04T13:15:42.094Z,101146.88
2022-09-04T13:18:15.609Z,101146.88
2022-09-04T13:20:43.181Z,101139.13
2022-09-04T13:23:35.386Z,101130.59
2022-09-04T13:26:20.948Z,101131.41
2022-09-04T13:29:45.450Z,101137.47
2022-09-04T13:32:35.757Z,101143.19
2022-09-04T13:35:19.257Z,101141.91
2022-09-04T13:38:16.492Z,101138.66
2022-09-04T13:41:02.676Z,101137.03
2022-09-04T13:43:36.057Z,101134.59
2022-09-04T13:46:05.846Z,101137.84
2022-09-04T13:48:44.739Z,101138.25
2022-09-04T13:51:24.386Z,101139.81
2022-09-04T13:53:57.797Z,101129.28
2022-09-04T13:56:30.217Z,101137.81
2022-09-04T13:59:12.092Z,101141.03
2022-09-04T14:01:49.371Z,101148.75
2022-09-04T14:04:48.921Z,101135.34
2022-09-04T14:07:32.160Z,101142.66
2022-09-04T14:10:22.991Z,101143.47
2022-09-04T14:13:10.542Z,101143.47
2022-09-04T14:16:09.118Z,101133.69
2022-09-04T14:19:12.243Z,101133.69
2022-09-04T14:22:16.295Z,101144.28
2022-09-04T14:25:06.589Z,101138.59
2022-09-04T14:27:44.931Z,101143.03
2022-09-04T14:30:23.977Z,101140.19
2022-09-04T14:33:25.268Z,101146.31
2022-09-04T14:36:07.774Z,101149.97
2022-09-04T14:38:44.403Z,101138.19
2022-09-04T14:41:36.480Z,101151.19
2022-09-04T14:44:45.765Z,101145.50
2022-09-04T14:47:37.044Z,101142.22
2022-09-04T14:50:12.581Z,101145.50
2022-09-04T14:52:49.221Z,101145.06
2022-09-04T14:55:45.713Z,101144.66
2022-09-04T14:58:23.515Z,101141.41
2022-09-04T15:01:04.375Z,101141.84
2022-09-04T15:03:44.345Z,101141.44
2022-09-04T15:06:29.098Z,101142.19
2022-09-04T15:09:35.962Z,101135.69
2022-09-04T15:12:24.775Z,101135.66
2022-09-04T15:15:04.403Z,101143.41
2022-09-04T15:17:46.879Z,101141.75
2022-09-04T15:20:25.005Z,101143.78
2022-09-04T15:22:59.902Z,101145.78
2022-09-04T15:25:57.350Z,101148.22
2022-09-04T15:28:45.336Z,101147.78
2022-09-04T15:31:29.193Z,101144.94
2022-09-04T15:34:07.737Z,101136.41
2022-09-04T15:36:37.920Z,101137.25
2022-09-04T15:39:18.617Z,101146.16
2022-09-04T15:41:50.071Z,101143.72
2022-09-04T15:44:30.392Z,101148.19
2022-09-04T15:47:18.092Z,101146.53
2022-09-04T15:49:54.708Z,101146.53
2022-09-04T15:52:40.301Z,101150.59
2022-09-04T15:55:20.180Z,101146.53
2022-09-04T15:58:15.753Z,101143.25
2022-09-04T16:01:06.449Z,101152.22
2022-09-04T16:03:42.456Z,101148.16
2022-09-04T16:06:38.732Z,101155.06
2022-09-04T16:09:20.468Z,101157.09
2022-09-04T16:12:10.713Z,101159.94
2022-09-04T16:14:49.215Z,101153.84
2022-09-04T16:17:30.405Z,101156.66
2022-09-04T16:20:20.335Z,101159.09
2022-09-04T16:22:58.454Z,101159.47
2022-09-04T16:25:32.710Z,101163.59
2022-09-04T16:28:02.981Z,101157.91
2022-09-04T16:30:44.291Z,101157.50
2022-09-04T16:33:32.264Z,101151.81
2022-09-04T16:36:05.022Z,101164.00
2022-09-04T16:38:47.914Z,101165.19
2022-09-04T16:41:29.249Z,101156.25
2022-09-04T16:44:25.848Z,101152.97
2022-09-04T16:47:06.048Z,101151.78
2022-09-04T16:49:56.271Z,101141.59
2022-09-04T16:52:43.766Z,101155.44
2022-09-04T16:55:37.000Z,101156.63
2022-09-04T16:58:42.458Z,101144.44
2022-09-04T17:01:25.898Z,101150.13
2022-09-04T17:04:13.886Z,101153.78
2022-09-04T17:07:03.411Z,101154.66
2022-09-04T17:10:12.297Z,101151.81
2022-09-04T17:12:49.721Z,101156.25
2022-09-04T17:15:31.184Z,101153.00
2022-09-04T17:18:03.260Z,101154.25
2022-09-04T17:24:12.830Z,101161.56
2022-09-04T17:29:12.872Z,101155.09
2022-09-04T17:29:13.596Z,101156.69
2022-09-04T17:30:01.389Z,101161.19
2022-09-04T17:36:58.156Z,101161.19
2022-09-04T17:40:41.787Z,101159.19
2022-09-04T17:41:30.047Z,101160.38
2022-09-04T17:41:32.399Z,101161.59
2022-09-04T17:44:33.933Z,101158.34
2022-09-04T17:47:18.466Z,101162.03
2022-09-04T17:49:53.900Z,101170.97
2022-09-04T17:52:30.510Z,101167.72
2022-09-04T17:55:15.482Z,101180.31
2022-09-04T17:57:45.276Z,101176.25
2022-09-04T18:00:27.195Z,101177.50
2022-09-04T18:02:57.530Z,101179.94
2022-09-04T18:05:53.305Z,101185.22
2022-09-04T18:08:30.243Z,101190.50
2022-09-04T18:11:14.021Z,101193.78
2022-09-04T18:14:01.974Z,101197.84
2022-09-04T18:17:12.204Z,101199.06
2022-09-04T18:19:43.572Z,101210.44
2022-09-04T18:22:25.311Z,101208.84
2022-09-04T18:25:29.473Z,101213.72
2022-09-04T18:28:25.555Z,101222.28
2022-09-04T18:37:06.750Z,101232.03
2022-09-04T18:37:24.737Z,101235.28
2022-09-04T18:37:45.192Z,101236.53
2022-09-04T18:40:39.174Z,101243.84
2022-09-04T18:50:22.932Z,101247.50
2022-09-04T18:50:38.688Z,101248.31
2022-09-04T18:50:39.985Z,101258.09
2022-09-04T18:52:31.943Z,101265.41
2022-09-04T18:55:14.647Z,101268.69
2022-09-04T18:57:54.252Z,101259.72
2022-09-04T19:00:47.525Z,101263.38
2022-09-04T19:03:31.848Z,101264.22
2022-09-04T19:06:10.061Z,101259.31
2022-09-04T19:08:51.913Z,101258.13
2022-09-04T19:11:41.696Z,101261.38
2022-09-04T19:14:15.654Z,101264.22
2022-09-04T19:16:55.824Z,101268.69
2022-09-04T19:19:53.963Z,101270.31
2022-09-04T19:22:41.766Z,101277.63
2022-09-04T19:25:15.769Z,101272.75
2022-09-04T19:27:53.172Z,101282.50
2022-09-04T19:30:33.971Z,101288.19
2022-09-04T19:33:19.986Z,101295.13
2022-09-04T19:36:09.273Z,101309.34
2022-09-04T19:45:57.549Z,101315.84
2022-09-04T19:46:00.252Z,101310.59
2022-09-04T19:46:03.049Z,101316.66
2022-09-04T19:47:49.094Z,101302.84
2022-09-04T19:53:21.908Z,101313.84
2022-09-04T19:53:42.778Z,101317.47
2022-09-04T19:56:29.425Z,101319.53
2022-09-04T19:59:06.765Z,101325.22
2022-09-04T20:01:59.564Z,101331.34
2022-09-04T20:04:37.167Z,101337.41
2022-09-04T20:07:41.165Z,101335.78
2022-09-04T20:10:38.072Z,101341.88
2022-09-04T20:13:26.502Z,101342.72
2022-09-04T20:16:30.232Z,101345.16
2022-09-04T20:19:10.098Z,101347.56
2022-09-04T20:22:05.344Z,101350.84
2022-09-04T20:24:57.109Z,101348.84
2022-09-04T20:28:18.084Z,101351.28
2022-09-04T20:31:28.476Z,101354.53
2022-09-04T20:34:26.811Z,101350.44
2022-09-04T20:37:24.344Z,101357.38
2022-09-04T20:40:01.707Z,101357.78
2022-09-04T20:43:04.285Z,101358.19
2022-09-04T20:48:43.329Z,101361.03
2022-09-04T20:52:52.415Z,101362.25
2022-09-04T20:52:58.422Z,101358.19
2022-09-04T20:55:00.219Z,101367.16
2022-09-04T21:00:54.803Z,101363.47
2022-09-04T21:03:18.783Z,101374.84
2022-09-04T21:03:59.171Z,101367.94
2022-09-04T21:06:48.543Z,101379.34
2022-09-04T21:09:29.962Z,101398.00
2022-09-04T21:12:24.665Z,101406.16
2022-09-04T21:15:05.303Z,101403.31
2022-09-04T21:18:03.931Z,101412.25
2022-09-04T21:21:00.048Z,101413.06
2022-09-04T21:24:03.887Z,101413.50
2022-09-04T21:26:41.445Z,101415.09
2022-09-04T21:29:39.772Z,101424.88
2022-09-04T21:32:29.128Z,101424.03
2022-09-04T21:35:15.196Z,101433.00
2022-09-04T21:37:51.566Z,101443.16
2022-09-04T21:40:59.375Z,101446.00
2022-09-04T21:43:45.118Z,101443.16
2022-09-04T21:46:21.502Z,101450.09
2022-09-04T21:49:28.553Z,101457.00
2022-09-04T21:52:03.059Z,101453.31
2022-09-04T21:59:32.717Z,101452.50
2022-09-04T22:02:32.245Z,101444.38
2022-09-04T22:02:39.551Z,101451.31
2022-09-04T22:04:22.801Z,101450.88
2022-09-04T22:11:00.944Z,101441.94
2022-09-04T22:13:38.742Z,101443.16
2022-09-04T22:14:24.228Z,101461.47
2022-09-04T22:17:37.105Z,101458.63
2022-09-04T22:20:43.583Z,101472.03
2022-09-04T22:23:33.556Z,101472.44
2022-09-04T22:26:23.131Z,101473.66
2022-09-04T22:29:07.922Z,101473.66
2022-09-04T22:32:14.720Z,101473.25
2022-09-04T22:35:00.463Z,101486.25
2022-09-04T22:37:55.420Z,101476.91
2022-09-04T22:40:26.016Z,101486.25
2022-09-04T22:43:25.277Z,101483.81
2022-09-04T22:46:16.976Z,101473.69
2022-09-04T22:49:11.639Z,101474.88
2022-09-04T22:52:15.053Z,101478.56
2022-09-04T22:54:54.870Z,101484.25
2022-09-04T22:58:04.805Z,101476.09
2022-09-04T23:00:54.465Z,101475.28
2022-09-04T23:03:33.994Z,101484.25
2022-09-04T23:07:27.959Z,101482.59
2022-09-04T23:13:54.153Z,101483.41
2022-09-04T23:13:59.243Z,101489.53
2022-09-04T23:16:36.219Z,101483.84
2022-09-04T23:25:17.970Z,101489.91
2022-09-04T23:26:37.153Z,101497.25
2022-09-04T23:26:42.693Z,101493.59
2022-09-04T23:29:22.083Z,101496.84
2022-09-04T23:32:10.051Z,101509.03
2022-09-04T23:34:56.012Z,101512.28
2022-09-04T23:38:01.022Z,101517.56
2022-09-04T23:40:42.037Z,101515.50
2022-09-04T23:43:13.285Z,101515.50
2022-09-04T23:46:10.054Z,101512.28
2022-09-04T23:49:16.793Z,101496.41
2022-09-04T23:51:54.487Z,101498.88
2022-09-04T23:54:51.629Z,101498.88
2022-09-04T23:57:43.180Z,101495.22
